createdAt,value
2018-12-23T00:01:10.409Z,74.00
2018-12-23T00:06:13.646Z,73.60
2018-12-23T00:11:17.082Z,72.80
2018-12-23T00:16:20.960Z,72.70
2018-12-23T00:21:24.906Z,72.50
2018-12-23T00:26:27.762Z,72.30
2018-12-23T00:31:30.974Z,72.60
2018-12-23T00:36:34.040Z,72.70
2018-12-23T00:41:37.073Z,72.80
2018-12-23T00:46:39.828Z,73.10
2018-12-23T00:51:43.801Z,73.40
2018-12-23T00:56:46.454Z,73.00
2018-12-23T01:01:49.637Z,72.20
2018-12-23T01:06:52.211Z,72.20
2018-12-23T01:11:56.332Z,72.50
2018-12-23T01:17:00.258Z,72.50
2018-12-23T01:22:03.221Z,72.40
2018-12-23T01:27:07.303Z,72.50
2018-12-23T01:32:10.838Z,72.80
2018-12-23T01:37:13.839Z,73.10
2018-12-23T01:42:16.634Z,73.40
2018-12-23T01:47:19.876Z,73.60
2018-12-23T01:52:23.284Z,74.40
2018-12-23T01:57:26.393Z,75.50
2018-12-23T02:02:29.583Z,75.90
2018-12-23T02:07:33.432Z,76.30
2018-12-23T02:12:36.522Z,76.60
2018-12-23T02:17:40.493Z,76.70
2018-12-23T02:22:43.779Z,77.10
2018-12-23T02:27:47.510Z,77.70
2018-12-23T02:32:51.512Z,78.30
2018-12-23T02:37:55.159Z,78.50
2018-12-23T02:42:58.686Z,78.90
2018-12-23T02:48:01.810Z,80.40
2018-12-23T02:53:05.177Z,78.60
2018-12-23T02:58:08.022Z,78.20
2018-12-23T03:03:10.965Z,77.70
2018-12-23T03:08:14.560Z,77.30
2018-12-23T03:13:18.393Z,77.50
2018-12-23T03:18:21.357Z,77.10
2018-12-23T03:23:24.423Z,76.60
2018-12-23T03:28:27.707Z,76.20
2018-12-23T03:33:30.978Z,78.20
2018-12-23T03:38:33.841Z,79.00
2018-12-23T03:43:36.472Z,80.80
2018-12-23T03:48:42.256Z,81.70
2018-12-23T03:53:45.044Z,81.60
2018-12-23T03:58:48.857Z,80.90
2018-12-23T04:03:52.219Z,79.70
2018-12-23T04:08:55.479Z,78.60
2018-12-23T04:13:58.201Z,78.40
2018-12-23T04:19:01.975Z,77.90
2018-12-23T04:24:04.993Z,77.90
2018-12-23T04:29:08.299Z,77.40
2018-12-23T04:34:10.925Z,77.70
2018-12-23T04:39:15.387Z,78.20
2018-12-23T04:44:18.578Z,78.20
2018-12-23T04:49:21.618Z,78.20
2018-12-23T04:54:28.033Z,77.20
2018-12-23T04:59:30.769Z,77.10
2018-12-23T05:04:33.772Z,76.10
2018-12-23T05:09:36.709Z,76.30
2018-12-23T05:14:39.672Z,76.20
2018-12-23T05:19:43.370Z,75.90
2018-12-23T05:24:45.970Z,75.80
2018-12-23T05:29:50.306Z,76.00
2018-12-23T05:34:53.167Z,76.50
2018-12-23T05:39:56.655Z,76.40
2018-12-23T05:44:59.684Z,76.60
2018-12-23T05:50:03.073Z,76.70
2018-12-23T05:55:06.131Z,76.60
2018-12-23T06:00:09.802Z,77.60
2018-12-23T06:05:13.180Z,77.70
2018-12-23T06:10:16.837Z,78.60
2018-12-23T06:15:19.821Z,77.70
2018-12-23T06:20:23.033Z,77.70
2018-12-23T06:25:26.676Z,77.40
2018-12-23T06:30:30.277Z,77.10
2018-12-23T06:35:33.800Z,76.50
2018-12-23T06:40:37.017Z,75.90
2018-12-23T06:45:40.098Z,75.60
2018-12-23T06:50:43.321Z,75.50
2018-12-23T06:55:45.980Z,75.40
2018-12-23T07:00:48.943Z,75.30
2018-12-23T07:05:51.572Z,74.70
2018-12-23T07:10:54.898Z,74.70
2018-12-23T07:15:58.123Z,74.50
2018-12-23T07:21:01.139Z,74.00
2018-12-23T07:26:04.518Z,74.00
2018-12-23T07:31:07.364Z,73.90
2018-12-23T07:36:10.045Z,73.80
2018-12-23T07:41:13.659Z,73.00
2018-12-23T07:46:16.374Z,72.90
2018-12-23T07:51:20.405Z,72.60
2018-12-23T07:56:24.049Z,72.10
2018-12-23T08:01:27.241Z,72.00
2018-12-23T08:06:30.150Z,72.10
2018-12-23T08:11:33.219Z,71.90
2018-12-23T08:16:36.285Z,72.40
2018-12-23T08:21:39.218Z,72.20
2018-12-23T08:26:41.879Z,72.10
2018-12-23T08:31:44.969Z,71.90
2018-12-23T08:36:47.943Z,72.20
2018-12-23T08:41:52.220Z,72.10
2018-12-23T08:46:55.093Z,72.50
2018-12-23T08:51:58.085Z,72.60
2018-12-23T08:57:01.427Z,72.80
2018-12-23T09:02:05.413Z,72.70
2018-12-23T09:07:08.621Z,72.80
2018-12-23T09:12:11.912Z,72.90
2018-12-23T09:17:14.805Z,73.00
2018-12-23T09:22:17.458Z,73.40
2018-12-23T09:27:20.104Z,73.80
2018-12-23T09:32:23.196Z,73.70
2018-12-23T09:37:28.359Z,74.20
2018-12-23T09:42:31.089Z,73.90
2018-12-23T09:52:40.245Z,73.90
2018-12-23T09:57:46.118Z,73.80
2018-12-23T10:02:49.418Z,74.20
2018-12-23T10:07:52.113Z,73.20
2018-12-23T10:12:54.985Z,73.00
2018-12-23T10:17:58.714Z,72.60
2018-12-23T10:23:01.721Z,72.90
2018-12-23T10:28:04.537Z,72.60
2018-12-23T10:33:09.947Z,72.40
2018-12-23T10:38:18.368Z,71.60
2018-12-23T10:43:18.516Z,72.00
2018-12-23T10:48:21.566Z,72.10
2018-12-23T10:53:24.293Z,73.20
2018-12-23T10:58:27.509Z,73.40
2018-12-23T11:03:30.118Z,73.70
2018-12-23T11:08:33.762Z,75.20
2018-12-23T11:13:38.200Z,75.80
2018-12-23T11:18:41.410Z,76.40
2018-12-23T11:23:44.743Z,76.90
2018-12-23T11:28:47.422Z,77.50
2018-12-23T11:33:51.345Z,77.20
2018-12-23T11:38:54.706Z,77.20
2018-12-23T11:43:58.082Z,77.80
2018-12-23T11:49:00.900Z,78.90
2018-12-23T11:54:03.710Z,78.60
2018-12-23T11:59:08.542Z,79.00
2018-12-23T12:04:12.109Z,80.00
2018-12-23T12:09:15.649Z,80.10
2018-12-23T12:14:19.245Z,80.00
2018-12-23T12:19:22.256Z,80.20
2018-12-23T12:24:25.674Z,79.60
2018-12-23T12:29:28.733Z,79.80
2018-12-23T12:34:31.433Z,80.40
2018-12-23T12:39:35.078Z,80.60
2018-12-23T12:44:38.092Z,80.30
2018-12-23T12:49:43.125Z,80.50
2018-12-23T12:54:46.616Z,81.40
2018-12-23T12:59:49.512Z,82.10
2018-12-23T13:04:53.084Z,82.70
2018-12-23T13:09:55.901Z,83.10
2018-12-23T13:14:59.973Z,83.00
2018-12-23T13:20:03.442Z,83.20
2018-12-23T13:25:06.090Z,83.20
2018-12-23T13:30:09.615Z,83.80
2018-12-23T13:35:12.573Z,84.10
2018-12-23T13:47:16.294Z,84.10
2018-12-23T13:52:41.503Z,82.80
2018-12-23T13:57:51.884Z,82.70
2018-12-23T14:03:07.300Z,82.60
2018-12-23T14:08:30.861Z,81.10
2018-12-23T14:13:35.398Z,81.30
2018-12-23T14:18:53.850Z,81.20
2018-12-23T14:24:02.649Z,81.30
2018-12-23T14:29:11.472Z,81.00
2018-12-23T14:34:18.343Z,81.00
2018-12-23T14:39:28.246Z,81.00
2018-12-23T14:44:41.518Z,81.20
2018-12-23T14:49:37.602Z,81.40
2018-12-23T14:54:41.806Z,81.60
2018-12-23T14:59:48.978Z,80.00
2018-12-23T15:04:54.653Z,82.20
2018-12-23T15:09:58.445Z,83.40
2018-12-23T15:15:05.271Z,82.70
2018-12-23T15:20:09.503Z,83.10
2018-12-23T15:25:23.127Z,84.30
2018-12-23T15:30:26.889Z,85.10
2018-12-23T15:35:32.941Z,87.00
2018-12-23T15:40:37.217Z,88.20
2018-12-23T15:45:41.030Z,88.00
2018-12-23T15:50:46.216Z,89.00
2018-12-23T15:55:50.047Z,88.40
2018-12-23T16:00:56.060Z,88.60
2018-12-23T16:05:59.932Z,90.00
2018-12-23T16:11:03.974Z,90.10
2018-12-23T16:16:15.520Z,90.20
2018-12-23T16:21:16.650Z,89.30
2018-12-23T16:26:26.419Z,89.00
2018-12-23T16:31:33.148Z,89.20
2018-12-23T16:36:38.267Z,88.40
2018-12-23T16:41:48.237Z,87.80
2018-12-23T16:46:57.981Z,87.70
2018-12-23T16:52:09.312Z,87.60
2018-12-23T16:57:14.793Z,87.80
2018-12-23T17:02:24.454Z,87.70
2018-12-23T17:07:29.007Z,87.40
2018-12-23T17:12:41.837Z,87.70
2018-12-23T17:17:48.431Z,87.70
2018-12-23T17:22:53.174Z,87.70
2018-12-23T17:28:00.323Z,87.90
2018-12-23T17:33:04.160Z,88.60
2018-12-23T17:38:12.483Z,88.40
2018-12-23T17:43:16.378Z,89.00
2018-12-23T17:48:20.168Z,90.10
2018-12-23T17:53:25.667Z,90.00
2018-12-23T17:58:32.266Z,90.10
2018-12-23T18:03:47.662Z,90.10
2018-12-23T18:08:51.548Z,90.40
2018-12-23T18:14:21.615Z,90.00
2018-12-23T18:19:04.818Z,89.70
2018-12-23T18:24:14.968Z,90.00
2018-12-23T18:29:22.020Z,90.20
2018-12-23T18:34:27.248Z,89.50
2018-12-23T18:39:34.538Z,89.30
2018-12-23T18:44:44.581Z,89.10
2018-12-23T18:55:37.188Z,89.60
2018-12-23T19:00:45.165Z,89.60
2018-12-23T19:05:55.030Z,90.10
2018-12-23T19:11:22.018Z,90.10
2018-12-23T19:16:37.110Z,90.10
2018-12-23T19:21:54.646Z,90.10
2018-12-23T19:27:28.790Z,89.90
2018-12-23T19:32:41.559Z,89.60
2018-12-23T19:38:20.073Z,89.50
2018-12-23T19:43:36.538Z,89.20
2018-12-23T19:49:12.490Z,89.30
2018-12-23T19:54:38.426Z,89.00
2018-12-23T19:59:49.807Z,89.40
2018-12-23T20:05:16.910Z,89.30
2018-12-23T20:10:43.798Z,89.20
2018-12-23T20:16:06.720Z,89.20
2018-12-23T20:21:16.005Z,89.30
2018-12-23T20:26:41.558Z,89.00
2018-12-23T20:31:51.380Z,88.70
2018-12-23T20:37:26.077Z,89.10
2018-12-23T20:42:35.939Z,88.90
2018-12-23T20:47:48.700Z,88.70
2018-12-23T20:53:07.439Z,88.90
2018-12-23T20:58:32.223Z,89.40
2018-12-23T21:04:03.586Z,89.10
2018-12-23T21:09:15.939Z,89.60
2018-12-23T21:14:27.139Z,90.30
2018-12-23T21:19:40.011Z,90.40
2018-12-23T21:24:55.983Z,90.50
2018-12-23T21:30:23.573Z,90.30
2018-12-23T21:35:43.339Z,90.60
2018-12-23T21:41:09.388Z,90.50
2018-12-23T21:46:42.318Z,90.60
2018-12-23T21:52:03.978Z,90.30
2018-12-23T21:57:23.738Z,90.20
2018-12-23T22:02:51.675Z,90.00
2018-12-23T22:08:19.376Z,90.00
2018-12-23T22:13:27.434Z,90.00
2018-12-23T22:18:35.592Z,90.20
2018-12-23T22:23:44.014Z,90.10
2018-12-23T22:28:48.251Z,90.00
2018-12-23T22:33:55.132Z,89.20
2018-12-23T22:38:59.683Z,88.90
2018-12-23T22:44:05.767Z,88.80
2018-12-23T22:49:12.466Z,88.40
2018-12-23T22:54:20.545Z,88.30
2018-12-23T23:00:03.209Z,88.90
2018-12-23T23:11:12.039Z,88.60
2018-12-23T23:16:15.084Z,88.40
2018-12-23T23:21:23.803Z,88.20
2018-12-23T23:26:29.202Z,88.20
2018-12-23T23:31:33.895Z,88.70
2018-12-23T23:36:40.542Z,88.40
2018-12-23T23:41:47.262Z,87.90
2018-12-23T23:46:57.465Z,87.40
2018-12-23T23:57:09.647Z,87.60
